sensor_id;sensor_type;location;lat;lon;timestamp;P1;durP1;ratioP1;P2;durP2;ratioP2
52940;SDS011;62001;53.366;6.636;2023-09-19T00:00:36;9.27;;;2.13;;
52940;SDS011;62001;53.366;6.636;2023-09-19T00:03:02;12.13;;;2.60;;
52940;SDS011;62001;53.366;6.636;2023-09-19T00:05:33;11.13;;;2.40;;
52940;SDS011;62001;53.366;6.636;2023-09-19T00:08:00;8.43;;;2.22;;
52940;SDS011;62001;53.366;6.636;2023-09-19T00:10:27;16.38;;;2.83;;
52940;SDS011;62001;53.366;6.636;2023-09-19T00:12:56;14.88;;;2.63;;
52940;SDS011;62001;53.366;6.636;2023-09-19T00:15:26;16.25;;;3.00;;
52940;SDS011;62001;53.366;6.636;2023-09-19T00:17:55;12.45;;;2.75;;
52940;SDS011;62001;53.366;6.636;2023-09-19T00:20:21;12.45;;;2.70;;
52940;SDS011;62001;53.366;6.636;2023-09-19T00:22:51;8.13;;;2.35;;
52940;SDS011;62001;53.366;6.636;2023-09-19T00:25:18;12.27;;;2.63;;
52940;SDS011;62001;53.366;6.636;2023-09-19T00:27:47;14.85;;;2.65;;
52940;SDS011;62001;53.366;6.636;2023-09-19T00:30:15;13.43;;;2.83;;
52940;SDS011;62001;53.366;6.636;2023-09-19T00:32:45;13.77;;;2.90;;
52940;SDS011;62001;53.366;6.636;2023-09-19T00:35:14;13.73;;;2.75;;
52940;SDS011;62001;53.366;6.636;2023-09-19T00:37:41;15.85;;;2.65;;
52940;SDS011;62001;53.366;6.636;2023-09-19T00:40:07;15.43;;;2.50;;
52940;SDS011;62001;53.366;6.636;2023-09-19T00:42:47;8.82;;;2.50;;
52940;SDS011;62001;53.366;6.636;2023-09-19T00:45:15;17.40;;;2.70;;
52940;SDS011;62001;53.366;6.636;2023-09-19T00:47:49;11.15;;;2.47;;
52940;SDS011;62001;53.366;6.636;2023-09-19T00:50:16;9.65;;;2.70;;
52940;SDS011;62001;53.366;6.636;2023-09-19T00:52:43;13.45;;;2.75;;
52940;SDS011;62001;53.366;6.636;2023-09-19T00:55:11;15.52;;;2.50;;
52940;SDS011;62001;53.366;6.636;2023-09-19T00:57:38;13.35;;;2.75;;
52940;SDS011;62001;53.366;6.636;2023-09-19T01:00:05;10.52;;;2.50;;
52940;SDS011;62001;53.366;6.636;2023-09-19T01:02:33;15.85;;;2.83;;
52940;SDS011;62001;53.366;6.636;2023-09-19T01:05:00;14.40;;;2.90;;
52940;SDS011;62001;53.366;6.636;2023-09-19T01:07:28;15.05;;;3.15;;
52940;SDS011;62001;53.366;6.636;2023-09-19T01:09:57;13.88;;;3.38;;
52940;SDS011;62001;53.366;6.636;2023-09-19T01:12:30;10.93;;;2.70;;
52940;SDS011;62001;53.366;6.636;2023-09-19T01:15:12;13.32;;;2.83;;
52940;SDS011;62001;53.366;6.636;2023-09-19T01:18:00;12.15;;;2.95;;
52940;SDS011;62001;53.366;6.636;2023-09-19T01:20:37;12.05;;;2.80;;
52940;SDS011;62001;53.366;6.636;2023-09-19T01:30:56;9.55;;;2.65;;
52940;SDS011;62001;53.366;6.636;2023-09-19T01:33:25;12.93;;;3.20;;
52940;SDS011;62001;53.366;6.636;2023-09-19T01:35:51;12.00;;;3.10;;
52940;SDS011;62001;53.366;6.636;2023-09-19T01:38:23;16.50;;;2.72;;
52940;SDS011;62001;53.366;6.636;2023-09-19T01:41:01;17.75;;;3.03;;
52940;SDS011;62001;53.366;6.636;2023-09-19T01:43:33;10.95;;;2.83;;
52940;SDS011;62001;53.366;6.636;2023-09-19T01:46:14;13.95;;;3.13;;
52940;SDS011;62001;53.366;6.636;2023-09-19T01:51:37;11.38;;;2.85;;
52940;SDS011;62001;53.366;6.636;2023-09-19T01:54:16;11.40;;;2.70;;
52940;SDS011;62001;53.366;6.636;2023-09-19T01:56:49;13.90;;;3.35;;
52940;SDS011;62001;53.366;6.636;2023-09-19T01:59:24;13.65;;;2.80;;
52940;SDS011;62001;53.366;6.636;2023-09-19T02:01:53;14.75;;;2.72;;
52940;SDS011;62001;53.366;6.636;2023-09-19T02:04:21;13.27;;;2.83;;
52940;SDS011;62001;53.366;6.636;2023-09-19T02:06:47;9.90;;;2.45;;
52940;SDS011;62001;53.366;6.636;2023-09-19T02:09:13;10.85;;;2.85;;
52940;SDS011;62001;53.366;6.636;2023-09-19T02:11:40;10.98;;;2.63;;
52940;SDS011;62001;53.366;6.636;2023-09-19T02:14:07;11.45;;;3.10;;
52940;SDS011;62001;53.366;6.636;2023-09-19T02:16:34;10.32;;;2.65;;
52940;SDS011;62001;53.366;6.636;2023-09-19T02:19:00;16.90;;;3.00;;
52940;SDS011;62001;53.366;6.636;2023-09-19T02:21:30;8.82;;;2.35;;
52940;SDS011;62001;53.366;6.636;2023-09-19T02:23:57;9.10;;;2.30;;
52940;SDS011;62001;53.366;6.636;2023-09-19T02:26:24;17.23;;;2.88;;
52940;SDS011;62001;53.366;6.636;2023-09-19T02:28:50;12.52;;;2.97;;
52940;SDS011;62001;53.366;6.636;2023-09-19T02:31:15;17.88;;;3.00;;
52940;SDS011;62001;53.366;6.636;2023-09-19T02:33:41;11.40;;;2.78;;
52940;SDS011;62001;53.366;6.636;2023-09-19T02:36:08;10.52;;;2.50;;
52940;SDS011;62001;53.366;6.636;2023-09-19T02:38:34;9.25;;;2.50;;
52940;SDS011;62001;53.366;6.636;2023-09-19T02:41:00;9.70;;;2.90;;
52940;SDS011;62001;53.366;6.636;2023-09-19T02:43:26;11.30;;;3.10;;
52940;SDS011;62001;53.366;6.636;2023-09-19T02:45:52;8.80;;;2.08;;
52940;SDS011;62001;53.366;6.636;2023-09-19T02:48:19;15.98;;;3.45;;
52940;SDS011;62001;53.366;6.636;2023-09-19T02:50:46;10.35;;;2.58;;
52940;SDS011;62001;53.366;6.636;2023-09-19T02:53:14;14.82;;;3.17;;
52940;SDS011;62001;53.366;6.636;2023-09-19T02:55:40;9.90;;;2.40;;
52940;SDS011;62001;53.366;6.636;2023-09-19T02:58:07;10.02;;;2.80;;
52940;SDS011;62001;53.366;6.636;2023-09-19T03:00:34;11.98;;;2.95;;
52940;SDS011;62001;53.366;6.636;2023-09-19T03:03:00;12.73;;;2.58;;
52940;SDS011;62001;53.366;6.636;2023-09-19T03:05:27;10.00;;;2.67;;
52940;SDS011;62001;53.366;6.636;2023-09-19T03:07:56;8.55;;;2.70;;
52940;SDS011;62001;53.366;6.636;2023-09-19T03:10:22;10.82;;;3.10;;
52940;SDS011;62001;53.366;6.636;2023-09-19T03:12:49;10.75;;;2.80;;
52940;SDS011;62001;53.366;6.636;2023-09-19T03:15:15;10.18;;;2.70;;
52940;SDS011;62001;53.366;6.636;2023-09-19T03:17:44;15.48;;;3.40;;
52940;SDS011;62001;53.366;6.636;2023-09-19T03:20:10;14.07;;;3.10;;
52940;SDS011;62001;53.366;6.636;2023-09-19T03:22:38;12.10;;;2.67;;
52940;SDS011;62001;53.366;6.636;2023-09-19T03:25:08;15.18;;;2.80;;
52940;SDS011;62001;53.366;6.636;2023-09-19T03:27:38;8.00;;;2.33;;
52940;SDS011;62001;53.366;6.636;2023-09-19T03:30:05;16.58;;;2.80;;
52940;SDS011;62001;53.366;6.636;2023-09-19T03:32:36;12.48;;;2.80;;
52940;SDS011;62001;53.366;6.636;2023-09-19T03:35:02;12.05;;;2.58;;
52940;SDS011;62001;53.366;6.636;2023-09-19T03:37:33;12.50;;;2.90;;
52940;SDS011;62001;53.366;6.636;2023-09-19T03:39:59;11.75;;;2.90;;
52940;SDS011;62001;53.366;6.636;2023-09-19T03:42:25;9.80;;;2.60;;
52940;SDS011;62001;53.366;6.636;2023-09-19T03:44:52;11.35;;;2.70;;
52940;SDS011;62001;53.366;6.636;2023-09-19T03:47:18;11.40;;;2.40;;
52940;SDS011;62001;53.366;6.636;2023-09-19T03:49:46;11.45;;;2.55;;
52940;SDS011;62001;53.366;6.636;2023-09-19T03:52:12;13.10;;;2.60;;
52940;SDS011;62001;53.366;6.636;2023-09-19T03:54:38;12.10;;;2.65;;
52940;SDS011;62001;53.366;6.636;2023-09-19T03:57:06;9.57;;;2.67;;
52940;SDS011;62001;53.366;6.636;2023-09-19T03:59:32;14.10;;;2.95;;
52940;SDS011;62001;53.366;6.636;2023-09-19T04:01:58;9.98;;;2.63;;
52940;SDS011;62001;53.366;6.636;2023-09-19T04:04:24;10.63;;;2.85;;
52940;SDS011;62001;53.366;6.636;2023-09-19T04:06:50;16.30;;;2.88;;
52940;SDS011;62001;53.366;6.636;2023-09-19T04:09:17;10.07;;;2.63;;
52940;SDS011;62001;53.366;6.636;2023-09-19T04:11:43;12.70;;;2.70;;
52940;SDS011;62001;53.366;6.636;2023-09-19T04:14:09;11.63;;;2.67;;
52940;SDS011;62001;53.366;6.636;2023-09-19T04:16:34;12.00;;;2.70;;
52940;SDS011;62001;53.366;6.636;2023-09-19T04:19:00;12.88;;;2.70;;
52940;SDS011;62001;53.366;6.636;2023-09-19T04:21:27;9.32;;;2.58;;
52940;SDS011;62001;53.366;6.636;2023-09-19T04:23:54;15.77;;;3.10;;
52940;SDS011;62001;53.366;6.636;2023-09-19T04:26:20;14.18;;;3.22;;
52940;SDS011;62001;53.366;6.636;2023-09-19T04:28:47;15.55;;;2.90;;
52940;SDS011;62001;53.366;6.636;2023-09-19T04:31:12;14.43;;;2.80;;
52940;SDS011;62001;53.366;6.636;2023-09-19T04:33:39;14.30;;;2.88;;
52940;SDS011;62001;53.366;6.636;2023-09-19T04:36:06;12.52;;;2.95;;
52940;SDS011;62001;53.366;6.636;2023-09-19T04:38:32;12.40;;;2.80;;
52940;SDS011;62001;53.366;6.636;2023-09-19T04:40:59;13.70;;;2.83;;
52940;SDS011;62001;53.366;6.636;2023-09-19T04:43:25;12.38;;;2.55;;
52940;SDS011;62001;53.366;6.636;2023-09-19T04:45:51;9.32;;;2.60;;
52940;SDS011;62001;53.366;6.636;2023-09-19T04:48:21;10.63;;;2.65;;
52940;SDS011;62001;53.366;6.636;2023-09-19T04:50:49;19.67;;;3.10;;
52940;SDS011;62001;53.366;6.636;2023-09-19T04:53:16;15.18;;;3.20;;
52940;SDS011;62001;53.366;6.636;2023-09-19T04:55:49;12.52;;;2.80;;
52940;SDS011;62001;53.366;6.636;2023-09-19T04:58:16;11.52;;;2.63;;
52940;SDS011;62001;53.366;6.636;2023-09-19T05:00:42;17.38;;;3.00;;
52940;SDS011;62001;53.366;6.636;2023-09-19T05:03:08;11.88;;;2.72;;
52940;SDS011;62001;53.366;6.636;2023-09-19T05:05:34;12.15;;;2.63;;
52940;SDS011;62001;53.366;6.636;2023-09-19T05:08:00;11.13;;;2.97;;
52940;SDS011;62001;53.366;6.636;2023-09-19T05:10:30;10.27;;;3.00;;
52940;SDS011;62001;53.366;6.636;2023-09-19T05:12:56;13.88;;;3.20;;
52940;SDS011;62001;53.366;6.636;2023-09-19T05:15:22;16.58;;;3.10;;
52940;SDS011;62001;53.366;6.636;2023-09-19T05:17:48;12.32;;;3.00;;
52940;SDS011;62001;53.366;6.636;2023-09-19T05:20:20;12.15;;;2.97;;
52940;SDS011;62001;53.366;6.636;2023-09-19T05:23:04;15.18;;;3.05;;
52940;SDS011;62001;53.366;6.636;2023-09-19T05:25:35;15.85;;;3.20;;
52940;SDS011;62001;53.366;6.636;2023-09-19T05:28:07;18.45;;;3.30;;
52940;SDS011;62001;53.366;6.636;2023-09-19T05:30:36;11.13;;;2.90;;
52940;SDS011;62001;53.366;6.636;2023-09-19T05:33:06;12.73;;;2.97;;
52940;SDS011;62001;53.366;6.636;2023-09-19T05:35:32;11.82;;;2.60;;
52940;SDS011;62001;53.366;6.636;2023-09-19T05:37:59;9.48;;;2.53;;
52940;SDS011;62001;53.366;6.636;2023-09-19T05:40:25;10.40;;;2.72;;
52940;SDS011;62001;53.366;6.636;2023-09-19T05:42:52;12.95;;;2.70;;
52940;SDS011;62001;53.366;6.636;2023-09-19T05:45:18;14.02;;;2.95;;
52940;SDS011;62001;53.366;6.636;2023-09-19T05:47:47;15.77;;;2.90;;
52940;SDS011;62001;53.366;6.636;2023-09-19T05:50:15;11.10;;;2.60;;
52940;SDS011;62001;53.366;6.636;2023-09-19T05:52:41;15.43;;;3.15;;
52940;SDS011;62001;53.366;6.636;2023-09-19T05:55:11;12.18;;;2.65;;
52940;SDS011;62001;53.366;6.636;2023-09-19T05:57:37;11.73;;;2.72;;
52940;SDS011;62001;53.366;6.636;2023-09-19T06:00:08;11.07;;;2.88;;
52940;SDS011;62001;53.366;6.636;2023-09-19T06:02:38;13.18;;;2.95;;
52940;SDS011;62001;53.366;6.636;2023-09-19T06:05:05;11.23;;;2.80;;
52940;SDS011;62001;53.366;6.636;2023-09-19T06:07:35;12.95;;;3.00;;
52940;SDS011;62001;53.366;6.636;2023-09-19T06:10:05;15.30;;;3.22;;
52940;SDS011;62001;53.366;6.636;2023-09-19T06:15:02;7.43;;;2.30;;
52940;SDS011;62001;53.366;6.636;2023-09-19T06:17:30;16.08;;;3.15;;
52940;SDS011;62001;53.366;6.636;2023-09-19T06:19:57;15.52;;;3.08;;
52940;SDS011;62001;53.366;6.636;2023-09-19T06:22:22;9.75;;;2.75;;
52940;SDS011;62001;53.366;6.636;2023-09-19T06:24:49;11.48;;;2.78;;
52940;SDS011;62001;53.366;6.636;2023-09-19T06:27:15;12.75;;;2.92;;
52940;SDS011;62001;53.366;6.636;2023-09-19T06:29:41;17.17;;;3.35;;
52940;SDS011;62001;53.366;6.636;2023-09-19T06:32:10;12.55;;;3.25;;
52940;SDS011;62001;53.366;6.636;2023-09-19T06:34:36;12.07;;;2.65;;
52940;SDS011;62001;53.366;6.636;2023-09-19T06:37:04;12.00;;;2.83;;
52940;SDS011;62001;53.366;6.636;2023-09-19T06:39:31;14.20;;;3.10;;
52940;SDS011;62001;53.366;6.636;2023-09-19T06:41:57;11.20;;;2.95;;
52940;SDS011;62001;53.366;6.636;2023-09-19T06:44:25;12.68;;;2.90;;
52940;SDS011;62001;53.366;6.636;2023-09-19T06:46:51;13.73;;;3.38;;
52940;SDS011;62001;53.366;6.636;2023-09-19T06:49:17;11.45;;;3.00;;
52940;SDS011;62001;53.366;6.636;2023-09-19T06:51:43;14.15;;;3.25;;
52940;SDS011;62001;53.366;6.636;2023-09-19T06:54:09;14.23;;;3.33;;
52940;SDS011;62001;53.366;6.636;2023-09-19T06:56:35;15.63;;;3.10;;
52940;SDS011;62001;53.366;6.636;2023-09-19T06:59:01;12.20;;;2.95;;
52940;SDS011;62001;53.366;6.636;2023-09-19T07:01:28;12.00;;;3.20;;
52940;SDS011;62001;53.366;6.636;2023-09-19T07:03:54;17.77;;;3.45;;
52940;SDS011;62001;53.366;6.636;2023-09-19T07:06:20;13.15;;;3.13;;
52940;SDS011;62001;53.366;6.636;2023-09-19T07:08:46;13.95;;;2.95;;
52940;SDS011;62001;53.366;6.636;2023-09-19T07:11:12;13.82;;;3.10;;
52940;SDS011;62001;53.366;6.636;2023-09-19T07:13:39;10.55;;;2.97;;
52940;SDS011;62001;53.366;6.636;2023-09-19T07:16:04;8.85;;;2.85;;
52940;SDS011;62001;53.366;6.636;2023-09-19T07:18:30;14.15;;;3.38;;
52940;SDS011;62001;53.366;6.636;2023-09-19T07:20:59;10.80;;;2.65;;
52940;SDS011;62001;53.366;6.636;2023-09-19T07:23:30;9.45;;;2.80;;
52940;SDS011;62001;53.366;6.636;2023-09-19T07:26:00;17.27;;;3.20;;
52940;SDS011;62001;53.366;6.636;2023-09-19T07:28:27;17.35;;;3.60;;
52940;SDS011;62001;53.366;6.636;2023-09-19T07:30:53;14.05;;;2.88;;
52940;SDS011;62001;53.366;6.636;2023-09-19T07:33:19;12.60;;;3.20;;
52940;SDS011;62001;53.366;6.636;2023-09-19T07:35:48;13.52;;;3.35;;
52940;SDS011;62001;53.366;6.636;2023-09-19T07:38:14;9.90;;;2.83;;
52940;SDS011;62001;53.366;6.636;2023-09-19T07:40:40;11.98;;;2.83;;
52940;SDS011;62001;53.366;6.636;2023-09-19T07:43:05;12.73;;;3.30;;
52940;SDS011;62001;53.366;6.636;2023-09-19T07:45:31;16.38;;;3.42;;
52940;SDS011;62001;53.366;6.636;2023-09-19T07:47:57;11.40;;;3.10;;
52940;SDS011;62001;53.366;6.636;2023-09-19T07:50:26;12.55;;;3.10;;
52940;SDS011;62001;53.366;6.636;2023-09-19T07:52:53;14.63;;;2.85;;
52940;SDS011;62001;53.366;6.636;2023-09-19T07:55:21;13.82;;;3.00;;
52940;SDS011;62001;53.366;6.636;2023-09-19T07:57:50;11.73;;;3.20;;
52940;SDS011;62001;53.366;6.636;2023-09-19T08:00:19;15.25;;;3.55;;
52940;SDS011;62001;53.366;6.636;2023-09-19T08:02:45;10.40;;;2.95;;
52940;SDS011;62001;53.366;6.636;2023-09-19T08:05:11;14.77;;;3.13;;
52940;SDS011;62001;53.366;6.636;2023-09-19T08:07:41;13.52;;;3.00;;
52940;SDS011;62001;53.366;6.636;2023-09-19T08:10:08;15.13;;;3.55;;
52940;SDS011;62001;53.366;6.636;2023-09-19T08:12:39;14.15;;;3.97;;
52940;SDS011;62001;53.366;6.636;2023-09-19T08:15:20;18.60;;;3.50;;
52940;SDS011;62001;53.366;6.636;2023-09-19T08:17:46;14.57;;;3.33;;
52940;SDS011;62001;53.366;6.636;2023-09-19T08:20:13;11.98;;;3.10;;
52940;SDS011;62001;53.366;6.636;2023-09-19T08:22:46;13.48;;;2.88;;
52940;SDS011;62001;53.366;6.636;2023-09-19T08:25:14;16.83;;;3.13;;
52940;SDS011;62001;53.366;6.636;2023-09-19T08:27:43;17.88;;;3.17;;
52940;SDS011;62001;53.366;6.636;2023-09-19T08:30:17;13.75;;;3.33;;
52940;SDS011;62001;53.366;6.636;2023-09-19T08:32:49;17.83;;;3.20;;
52940;SDS011;62001;53.366;6.636;2023-09-19T08:35:24;15.82;;;3.45;;
52940;SDS011;62001;53.366;6.636;2023-09-19T08:37:50;13.98;;;3.35;;
52940;SDS011;62001;53.366;6.636;2023-09-19T08:40:16;15.75;;;2.97;;
52940;SDS011;62001;53.366;6.636;2023-09-19T08:42:52;14.45;;;3.17;;
52940;SDS011;62001;53.366;6.636;2023-09-19T08:45:22;14.18;;;3.17;;
52940;SDS011;62001;53.366;6.636;2023-09-19T08:50:28;16.20;;;3.40;;
52940;SDS011;62001;53.366;6.636;2023-09-19T08:52:59;15.18;;;3.17;;
52940;SDS011;62001;53.366;6.636;2023-09-19T08:55:35;12.65;;;3.22;;
52940;SDS011;62001;53.366;6.636;2023-09-19T08:58:05;15.90;;;3.35;;
52940;SDS011;62001;53.366;6.636;2023-09-19T09:00:34;17.83;;;3.45;;
52940;SDS011;62001;53.366;6.636;2023-09-19T09:03:01;11.05;;;3.13;;
52940;SDS011;62001;53.366;6.636;2023-09-19T09:05:29;17.58;;;3.85;;
52940;SDS011;62001;53.366;6.636;2023-09-19T09:07:57;11.85;;;3.05;;
52940;SDS011;62001;53.366;6.636;2023-09-19T09:10:25;15.80;;;3.35;;
52940;SDS011;62001;53.366;6.636;2023-09-19T09:12:52;10.95;;;3.50;;
52940;SDS011;62001;53.366;6.636;2023-09-19T09:15:20;12.48;;;3.78;;
52940;SDS011;62001;53.366;6.636;2023-09-19T09:17:50;18.40;;;3.70;;
52940;SDS011;62001;53.366;6.636;2023-09-19T09:20:18;11.82;;;3.20;;
52940;SDS011;62001;53.366;6.636;2023-09-19T09:22:54;14.60;;;3.50;;
52940;SDS011;62001;53.366;6.636;2023-09-19T09:25:25;14.05;;;3.50;;
52940;SDS011;62001;53.366;6.636;2023-09-19T09:28:19;14.55;;;3.22;;
52940;SDS011;62001;53.366;6.636;2023-09-19T09:30:49;17.77;;;3.85;;
52940;SDS011;62001;53.366;6.636;2023-09-19T09:33:15;11.57;;;3.45;;
52940;SDS011;62001;53.366;6.636;2023-09-19T09:38:26;15.40;;;3.92;;
52940;SDS011;62001;53.366;6.636;2023-09-19T09:40:56;15.82;;;3.70;;
52940;SDS011;62001;53.366;6.636;2023-09-19T09:43:33;17.75;;;4.28;;
52940;SDS011;62001;53.366;6.636;2023-09-19T09:46:13;12.13;;;3.97;;
52940;SDS011;62001;53.366;6.636;2023-09-19T09:51:48;18.88;;;4.30;;
52940;SDS011;62001;53.366;6.636;2023-09-19T09:54:28;14.20;;;4.03;;
52940;SDS011;62001;53.366;6.636;2023-09-19T09:57:05;20.52;;;4.28;;
52940;SDS011;62001;53.366;6.636;2023-09-19T09:59:50;19.10;;;4.15;;
52940;SDS011;62001;53.366;6.636;2023-09-19T10:02:16;13.82;;;3.55;;
52940;SDS011;62001;53.366;6.636;2023-09-19T10:04:50;17.90;;;4.07;;
52940;SDS011;62001;53.366;6.636;2023-09-19T10:07:30;17.00;;;4.40;;
52940;SDS011;62001;53.366;6.636;2023-09-19T10:10:03;18.75;;;4.22;;
52940;SDS011;62001;53.366;6.636;2023-09-19T10:12:50;15.82;;;3.88;;
52940;SDS011;62001;53.366;6.636;2023-09-19T10:15:21;18.90;;;3.85;;
52940;SDS011;62001;53.366;6.636;2023-09-19T10:20:23;13.88;;;3.75;;
52940;SDS011;62001;53.366;6.636;2023-09-19T10:23:05;13.20;;;3.70;;
52940;SDS011;62001;53.366;6.636;2023-09-19T10:25:39;17.58;;;4.07;;
52940;SDS011;62001;53.366;6.636;2023-09-19T10:28:07;13.50;;;3.78;;
52940;SDS011;62001;53.366;6.636;2023-09-19T10:33:09;16.27;;;4.32;;
52940;SDS011;62001;53.366;6.636;2023-09-19T10:35:36;17.67;;;4.10;;
52940;SDS011;62001;53.366;6.636;2023-09-19T10:38:06;15.15;;;4.13;;
52940;SDS011;62001;53.366;6.636;2023-09-19T10:40:34;18.50;;;3.90;;
52940;SDS011;62001;53.366;6.636;2023-09-19T10:43:02;19.38;;;4.18;;
52940;SDS011;62001;53.366;6.636;2023-09-19T10:45:33;21.20;;;4.50;;
52940;SDS011;62001;53.366;6.636;2023-09-19T10:48:01;14.52;;;3.75;;
52940;SDS011;62001;53.366;6.636;2023-09-19T10:50:34;18.20;;;4.22;;
52940;SDS011;62001;53.366;6.636;2023-09-19T10:53:10;16.83;;;4.00;;
52940;SDS011;62001;53.366;6.636;2023-09-19T10:55:38;12.55;;;3.08;;
52940;SDS011;62001;53.366;6.636;2023-09-19T10:58:05;16.83;;;4.20;;
52940;SDS011;62001;53.366;6.636;2023-09-19T11:00:50;20.77;;;4.60;;
52940;SDS011;62001;53.366;6.636;2023-09-19T11:03:18;19.45;;;4.40;;
52940;SDS011;62001;53.366;6.636;2023-09-19T11:08:55;13.40;;;3.70;;
52940;SDS011;62001;53.366;6.636;2023-09-19T11:30:34;19.48;;;4.57;;
52940;SDS011;62001;53.366;6.636;2023-09-19T11:36:09;16.60;;;4.18;;
52940;SDS011;62001;53.366;6.636;2023-09-19T11:46:34;19.70;;;4.18;;
52940;SDS011;62001;53.366;6.636;2023-09-19T11:49:29;19.08;;;4.18;;
52940;SDS011;62001;53.366;6.636;2023-09-19T11:51:57;13.50;;;3.90;;
52940;SDS011;62001;53.366;6.636;2023-09-19T11:54:26;16.27;;;4.38;;
52940;SDS011;62001;53.366;6.636;2023-09-19T11:56:57;19.45;;;4.22;;
52940;SDS011;62001;53.366;6.636;2023-09-19T11:59:27;15.10;;;3.83;;
52940;SDS011;62001;53.366;6.636;2023-09-19T12:02:07;12.65;;;4.05;;
52940;SDS011;62001;53.366;6.636;2023-09-19T12:04:44;16.92;;;4.15;;
52940;SDS011;62001;53.366;6.636;2023-09-19T12:07:15;17.23;;;3.78;;
52940;SDS011;62001;53.366;6.636;2023-09-19T12:09:48;17.02;;;4.18;;
52940;SDS011;62001;53.366;6.636;2023-09-19T12:12:27;15.10;;;3.72;;
52940;SDS011;62001;53.366;6.636;2023-09-19T12:14:53;15.32;;;4.15;;
52940;SDS011;62001;53.366;6.636;2023-09-19T12:17:24;16.83;;;3.80;;
52940;SDS011;62001;53.366;6.636;2023-09-19T12:20:04;20.67;;;4.13;;
52940;SDS011;62001;53.366;6.636;2023-09-19T12:22:43;17.42;;;4.20;;
52940;SDS011;62001;53.366;6.636;2023-09-19T12:25:11;17.92;;;3.90;;
52940;SDS011;62001;53.366;6.636;2023-09-19T12:27:42;11.52;;;3.35;;
52940;SDS011;62001;53.366;6.636;2023-09-19T12:30:12;20.35;;;3.80;;
52940;SDS011;62001;53.366;6.636;2023-09-19T12:32:47;16.20;;;3.65;;
52940;SDS011;62001;53.366;6.636;2023-09-19T12:38:28;18.67;;;3.78;;
52940;SDS011;62001;53.366;6.636;2023-09-19T12:40:57;15.77;;;4.03;;
52940;SDS011;62001;53.366;6.636;2023-09-19T12:43:30;14.35;;;3.83;;
52940;SDS011;62001;53.366;6.636;2023-09-19T12:46:04;19.92;;;4.28;;
52940;SDS011;62001;53.366;6.636;2023-09-19T12:48:30;18.73;;;4.10;;
52940;SDS011;62001;53.366;6.636;2023-09-19T12:51:01;18.27;;;4.10;;
52940;SDS011;62001;53.366;6.636;2023-09-19T12:53:30;17.15;;;3.75;;
52940;SDS011;62001;53.366;6.636;2023-09-19T12:56:15;16.08;;;4.15;;
52940;SDS011;62001;53.366;6.636;2023-09-19T12:58:52;19.05;;;3.80;;
52940;SDS011;62001;53.366;6.636;2023-09-19T13:01:20;17.05;;;4.15;;
52940;SDS011;62001;53.366;6.636;2023-09-19T13:06:37;15.60;;;3.65;;
52940;SDS011;62001;53.366;6.636;2023-09-19T13:09:11;13.35;;;3.45;;
52940;SDS011;62001;53.366;6.636;2023-09-19T13:11:37;15.80;;;3.35;;
52940;SDS011;62001;53.366;6.636;2023-09-19T13:19:34;12.90;;;3.38;;
52940;SDS011;62001;53.366;6.636;2023-09-19T13:22:01;10.82;;;3.10;;
52940;SDS011;62001;53.366;6.636;2023-09-19T13:24:28;13.18;;;3.65;;
52940;SDS011;62001;53.366;6.636;2023-09-19T13:26:56;11.60;;;2.45;;
52940;SDS011;62001;53.366;6.636;2023-09-19T13:29:22;15.98;;;3.08;;
52940;SDS011;62001;53.366;6.636;2023-09-19T13:31:48;10.73;;;2.72;;
52940;SDS011;62001;53.366;6.636;2023-09-19T13:34:18;14.40;;;3.22;;
52940;SDS011;62001;53.366;6.636;2023-09-19T13:36:45;11.63;;;3.17;;
52940;SDS011;62001;53.366;6.636;2023-09-19T13:39:15;12.48;;;3.00;;
52940;SDS011;62001;53.366;6.636;2023-09-19T13:41:41;12.23;;;2.95;;
52940;SDS011;62001;53.366;6.636;2023-09-19T13:44:12;17.08;;;3.20;;
52940;SDS011;62001;53.366;6.636;2023-09-19T13:46:39;14.65;;;2.88;;
52940;SDS011;62001;53.366;6.636;2023-09-19T13:49:05;11.88;;;2.85;;
52940;SDS011;62001;53.366;6.636;2023-09-19T13:51:31;14.40;;;2.83;;
52940;SDS011;62001;53.366;6.636;2023-09-19T13:53:58;11.82;;;2.67;;
52940;SDS011;62001;53.366;6.636;2023-09-19T13:56:25;6.43;;;2.80;;
52940;SDS011;62001;53.366;6.636;2023-09-19T13:58:56;11.60;;;2.58;;
52940;SDS011;62001;53.366;6.636;2023-09-19T14:01:22;7.40;;;2.20;;
52940;SDS011;62001;53.366;6.636;2023-09-19T14:03:48;6.57;;;2.30;;
52940;SDS011;62001;53.366;6.636;2023-09-19T14:06:16;13.80;;;2.40;;
52940;SDS011;62001;53.366;6.636;2023-09-19T14:08:43;9.85;;;2.30;;
52940;SDS011;62001;53.366;6.636;2023-09-19T14:11:12;12.25;;;2.38;;
52940;SDS011;62001;53.366;6.636;2023-09-19T14:13:39;13.57;;;2.58;;
52940;SDS011;62001;53.366;6.636;2023-09-19T14:16:06;12.15;;;2.83;;
52940;SDS011;62001;53.366;6.636;2023-09-19T14:18:34;11.45;;;2.63;;
52940;SDS011;62001;53.366;6.636;2023-09-19T14:21:04;10.85;;;2.55;;
52940;SDS011;62001;53.366;6.636;2023-09-19T14:26:02;8.73;;;2.22;;
52940;SDS011;62001;53.366;6.636;2023-09-19T14:28:28;9.63;;;2.28;;
52940;SDS011;62001;53.366;6.636;2023-09-19T14:30:55;10.90;;;2.50;;
52940;SDS011;62001;53.366;6.636;2023-09-19T14:33:21;7.80;;;2.42;;
52940;SDS011;62001;53.366;6.636;2023-09-19T14:35:47;8.90;;;2.40;;
52940;SDS011;62001;53.366;6.636;2023-09-19T14:38:12;8.85;;;2.20;;
52940;SDS011;62001;53.366;6.636;2023-09-19T14:40:39;13.50;;;2.80;;
52940;SDS011;62001;53.366;6.636;2023-09-19T14:43:05;12.05;;;2.50;;
52940;SDS011;62001;53.366;6.636;2023-09-19T14:45:35;12.25;;;2.80;;
52940;SDS011;62001;53.366;6.636;2023-09-19T14:48:01;7.38;;;2.47;;
52940;SDS011;62001;53.366;6.636;2023-09-19T14:50:30;14.27;;;2.63;;
52940;SDS011;62001;53.366;6.636;2023-09-19T14:52:56;8.43;;;2.60;;
52940;SDS011;62001;53.366;6.636;2023-09-19T14:55:23;8.80;;;2.78;;
52940;SDS011;62001;53.366;6.636;2023-09-19T14:57:49;8.80;;;2.88;;
52940;SDS011;62001;53.366;6.636;2023-09-19T15:00:17;9.95;;;2.83;;
52940;SDS011;62001;53.366;6.636;2023-09-19T15:02:45;13.77;;;2.92;;
52940;SDS011;62001;53.366;6.636;2023-09-19T15:05:13;7.47;;;2.78;;
52940;SDS011;62001;53.366;6.636;2023-09-19T15:07:40;8.20;;;2.65;;
52940;SDS011;62001;53.366;6.636;2023-09-19T15:10:06;10.48;;;2.80;;
52940;SDS011;62001;53.366;6.636;2023-09-19T15:12:35;8.85;;;2.60;;
52940;SDS011;62001;53.366;6.636;2023-09-19T15:15:03;11.07;;;2.95;;
52940;SDS011;62001;53.366;6.636;2023-09-19T15:17:35;6.00;;;2.38;;
52940;SDS011;62001;53.366;6.636;2023-09-19T15:20:01;8.77;;;2.70;;
52940;SDS011;62001;53.366;6.636;2023-09-19T15:22:28;9.75;;;2.47;;
52940;SDS011;62001;53.366;6.636;2023-09-19T15:24:54;10.77;;;2.72;;
52940;SDS011;62001;53.366;6.636;2023-09-19T15:27:21;8.40;;;2.45;;
52940;SDS011;62001;53.366;6.636;2023-09-19T15:29:47;8.93;;;2.78;;
52940;SDS011;62001;53.366;6.636;2023-09-19T15:32:13;8.25;;;2.58;;
52940;SDS011;62001;53.366;6.636;2023-09-19T15:34:38;11.18;;;2.83;;
52940;SDS011;62001;53.366;6.636;2023-09-19T15:37:04;10.32;;;2.60;;
52940;SDS011;62001;53.366;6.636;2023-09-19T15:39:31;6.85;;;2.30;;
52940;SDS011;62001;53.366;6.636;2023-09-19T15:41:59;9.27;;;2.70;;
52940;SDS011;62001;53.366;6.636;2023-09-19T15:44:25;7.47;;;2.40;;
52940;SDS011;62001;53.366;6.636;2023-09-19T15:46:54;6.45;;;2.33;;
52940;SDS011;62001;53.366;6.636;2023-09-19T15:49:19;9.40;;;2.47;;
52940;SDS011;62001;53.366;6.636;2023-09-19T15:51:46;7.55;;;2.78;;
52940;SDS011;62001;53.366;6.636;2023-09-19T15:54:12;7.80;;;2.78;;
52940;SDS011;62001;53.366;6.636;2023-09-19T15:56:43;8.30;;;2.40;;
52940;SDS011;62001;53.366;6.636;2023-09-19T15:59:10;5.68;;;2.28;;